x

Western Caribbean - 195 Nm Wsw Of Negril Jamiaca (42057) Wave Buoy

7:50 - Tue 31st Mar 2015 All times are UTC.

  • Sig Wave height 6.9ft
  • Swell Direction
  • Peak Period 8s
  • Average Period 6s
  • Wind
    18mph, 22mph gusts
  • Sea Temp 82°f
  • Ar Temp 79°f
  • Sea Pressure 1014.7mb

More Historic Weather Station data

Upgrade to MSW Pro to gain access to the past 30 days of data for over 8000 Wavebouys and Weather Stations around the globe.

Join Pro

Comparision Forecast

View Surf forecast
   
Ter 03/31 7:50 7ft 8s 6s 18 22 mph 1014.7mb 82f 79f
6:50 6.5ft 8s 6s 18 22 mph 1015mb 82f 79f
5:50 6ft 8s 6s 20 25 mph 1015.5mb 82f 79f
4:50 7ft 8s 6s 20 25 mph 1016.4mb 82f 80f
3:50 6.5ft 8s 6s 25 29 mph 1017.3mb 82f 78f
2:50 6ft 8s 6s 22 27 mph 1017.5mb 82f 79f
1:50 6ft 8s 6s 20 25 mph 1017.4mb 82f 79f
12:50 6ft 8s 6s 20 22 mph 1016.9mb 82f 80f
Seg 03/30 11:50 6ft 8s 6s 20 22 mph 1016.5mb 82f 79f
10:50 6.5ft 8s 6s 18 20 mph 1015.7mb 82f 79f
9:50 6.5ft 9s 6s 16 20 mph 1015.7mb 82f 79f
8:50 7ft 9s 7s 13 16 mph 1015.8mb 82f 79f
7:50 6.5ft 9s 6s 18 25 mph 1016mb 82f 76f
6:50 7ft 8s 7s 4 7 mph 1016.8mb 83f 80f
5:50 6.5ft 8s 6s 4 7 mph 1017.6mb 82f 79f
4:50 7ft 8s 7s 11 13 mph 1018mb 82f 76f
3:50 7ft 9s 6s 9 11 mph 1018.3mb 82f 78f
2:50 6.5ft 8s 6s 11 13 mph 1018mb 82f 81f
1:50 6.5ft 7s 6s 11 16 mph 1018.1mb 82f 80f
12:50 6.5ft 8s 6s 18 22 mph 1016.9mb 81f 80f
11:50 6ft 8s 6s 20 22 mph 1016.2mb 82f 80f
10:50 6.5ft 8s 6s 11 13 mph 1015.7mb 82f 80f
9:50 6ft 8s 6s 13 18 mph 1015.6mb 82f 81f
8:50 5.5ft 8s 6s 13 16 mph 1015.7mb 82f 80f
7:50 5ft 7s 6s 16 20 mph 1015.9mb 82f 80f
6:50 4.5ft 8s 5s 16 18 mph 1016.5mb 82f 80f
5:50 4.5ft 7s 5s 18 22 mph 1017mb 82f 81f
4:50 4.5ft 7s 5s 18 20 mph 1018mb 82f 81f
3:50 4.5ft 7s 5s 18 20 mph 1018.3mb 82f 81f
2:50 4.5ft 7s 5s 18 20 mph 1018.2mb 82f 81f
1:50 4ft 7s 5s 16 20 mph 1017.6mb 82f 81f
12:50 4ft 8s 5s 16 18 mph 1016.9mb 82f 81f
Dom 03/29 11:50 4.5ft 8s 5s 13
mph
1016.7mb 82f 81f
10:50 4.5ft 7s 5s 11 16 mph 1016.2mb 82f 81f
9:50 4ft 6s 5s 13 16 mph 1015.9mb 82f 81f
8:50 4.5ft 8s 5s 11 13 mph 1016mb 82f 81f
7:50 3.5ft 8s 5s 11 13 mph 1016.4mb 82f 81f
6:50 3.5ft 8s 5s 13 16 mph 1017.3mb 82f 81f
5:50 3ft 8s 5s 16 18 mph 1018.2mb 82f 81f
4:50 2.5ft 8s 5s 16 18 mph 1018.8mb 82f 81f
3:50 2.5ft 8s 4s 16 18 mph 1019.1mb 82f 80f
2:50 2.5ft 8s 4s 20 22 mph 1018.9mb 82f 80f
1:50 2.5ft 8s 4s 16 18 mph 1018.6mb 82f 81f
12:50 2.5ft 8s 4s 13 16 mph 1018.1mb 81f 81f
11:50 2.5ft 8s 5s 13 16 mph 1017.6mb 82f 80f
10:50 2.5ft 8s 5s 13 16 mph 1017.3mb 82f 80f
9:50 2.5ft 8s 5s 11 13 mph 1016.9mb 82f 80f
8:50 2.5ft 8s 5s 11 13 mph 1016.4mb 82f 80f
7:50 2.5ft 7s 5s 11
mph
1016.6mb 82f 80f
6:50 2.5ft 8s 5s 9
mph
1016.9mb 82f 80f
5:50 2.5ft 8s 5s 7 9 mph 1017.7mb 82f 81f
4:50 2.5ft 7s 5s 9 11 mph 1018.2mb 82f 81f
3:50 2.5ft 8s 5s 7 9 mph 1018.4mb 82f 81f
2:50 3ft 8s 5s 7 9 mph 1018.2mb 83f 81f
1:50 3ft 8s 5s 7 9 mph 1017.5mb 83f 81f
12:50 3ft 8s 5s 2 4 mph 1017mb 83f 81f
Sáb 03/28 11:50 3ft 8s 5s 2 4 mph 1016.2mb 83f 80f
10:50 3.5ft 7s 6s 4 7 mph 1015.6mb 83f 81f
9:50 3.5ft 8s 6s 7 9 mph 1015.3mb 84f 79f
8:50 3.5ft 8s 6s 7 9 mph 1014.8mb 84f 81f
7:50 2.5ft 8s 5s 7
mph
1015.4mb 85f 81f
6:50 3ft 7s 6s 9 11 mph 1016mb 83f 81f
5:50 3.5ft 8s 5s 2
mph
1017mb 85f 82f
4:50 2.5ft 7s 5s 2
mph
1017.8mb 84f 81f
3:50 2.5ft 7s 5s 2 4 mph 1018.1mb 83f 81f
2:50 2.5ft 8s 5s 4 7 mph 1018mb 83f 81f
1:50 2.5ft 8s 5s 2 4 mph 1017.9mb 82f 81f
12:50 3ft 8s 5s 4
mph
1017.1mb 82f 81f
11:50 3ft 6s 5s 4 7 mph 1016.7mb 82f 80f
10:50 2.5ft 6s 5s 4 7 mph 1015.8mb 82f 80f
9:50 3ft 8s 5s 2 4 mph 1015.4mb 82f 80f
8:50 3ft 8s 5s 4
mph
1014.9mb 82f 80f
7:50 3ft 6s 5s 4 7 mph 1014.9mb 82f 80f
6:50 3ft 7s 5s 9
mph
1014.9mb 82f 80f
5:50 3ft 6s 5s 4 7 mph 1015.9mb 82f 80f
4:50 3ft 7s 5s 4 7 mph 1016.3mb 82f 81f
3:50 3ft 6s 5s 4 7 mph 1016.6mb 82f 81f
2:50 3.5ft 6s 5s 7 9 mph 1016.1mb 82f 81f
1:50 3.5ft 5s 5s 7 9 mph 1015.1mb 82f 81f
12:50 3.5ft 7s 5s 7 9 mph 1014.5mb 82f 81f
Sex 03/27 11:50 3.5ft 7s 5s 9 11 mph 1013.8mb 83f 81f
10:50 3ft 7s 5s 11 13 mph 1013.4mb 83f 81f
9:50 3.5ft 7s 5s 11 13 mph 1013.3mb 83f 82f
8:50 3ft 4s 4s 13
mph
1013mb 83f 82f
7:50 3ft 7s 5s 11 13 mph 1013.4mb 83f 82f
6:50 3.5ft 7s 5s 13
mph
1013.9mb 83f 81f
5:50 3.5ft 7s 5s 13 16 mph 1014.5mb 82f 81f
4:50 3ft 7s 4s 13 16 mph 1015.1mb 82f 81f
3:50 3ft 6s 4s 13 16 mph 1015.3mb 82f 81f
2:50 3ft 7s 5s 13 16 mph 1015.4mb 82f 81f
1:50 3ft 7s 4s 13
mph
1015.5mb 82f 81f
12:50 3ft 7s 4s 13 16 mph 1014.9mb 82f 81f
11:50 2.5ft 8s 4s 13 16 mph 1014.3mb 82f 80f
10:50 3ft 7s 4s 13 18 mph 1013.4mb 82f 80f
9:50 3ft 7s 4s 13 16 mph 1013.1mb 82f 80f
8:50 3ft 6s 4s 13 18 mph 1012.8mb 82f 80f